createdAt,value
2022-08-21T00:00:34.283Z,98692.09
2022-08-21T00:05:56.185Z,98693.81
2022-08-21T00:11:18.607Z,98691.84
2022-08-21T00:16:40.578Z,98688.38
2022-08-21T00:22:02.383Z,98685.72
2022-08-21T00:27:24.122Z,98687.53
2022-08-21T00:32:46.325Z,98678.47
2022-08-21T00:38:09.272Z,98681.41
2022-08-21T00:43:35.751Z,98686.09
2022-08-21T00:48:59.040Z,98685.72
2022-08-21T00:54:25.510Z,98680.94
2022-08-21T00:59:51.906Z,98671.16
2022-08-21T01:05:14.587Z,98677.56
2022-08-21T01:10:37.993Z,98679.06
2022-08-21T01:16:03.756Z,98675.69
2022-08-21T01:21:27.986Z,98674.97
2022-08-21T01:26:51.955Z,98676.50
2022-08-21T01:32:17.487Z,98673.88
2022-08-21T01:37:39.394Z,98672.47
2022-08-21T01:43:01.406Z,98678.31
2022-08-21T01:48:23.130Z,98664.22
2022-08-21T01:53:45.044Z,98670.88
2022-08-21T01:59:07.824Z,98661.56
2022-08-21T02:04:29.732Z,98660.22
2022-08-21T02:09:51.459Z,98651.31
2022-08-21T02:15:15.524Z,98656.31
2022-08-21T02:20:40.970Z,98657.66
2022-08-21T02:26:05.969Z,98652.22
2022-08-21T02:31:27.762Z,98654.66
2022-08-21T02:36:59.405Z,98656.19
2022-08-21T02:42:21.625Z,98646.03
2022-08-21T02:47:55.975Z,98645.00
2022-08-21T02:53:17.797Z,98643.63
2022-08-21T02:58:48.818Z,98650.88
2022-08-21T03:04:11.349Z,98659.41
2022-08-21T03:09:33.058Z,98653.56
2022-08-21T03:14:54.780Z,98650.56
2022-08-21T03:20:19.086Z,98652.03
2022-08-21T03:25:41.526Z,98647.13
2022-08-21T03:31:03.253Z,98652.97
2022-08-21T03:36:25.392Z,98655.56
2022-08-21T03:41:48.138Z,98660.06
2022-08-21T03:47:10.565Z,98665.69
2022-08-21T03:52:32.380Z,98664.44
2022-08-21T03:57:54.492Z,98672.06
2022-08-21T04:03:17.132Z,98669.72
2022-08-21T04:08:39.020Z,98670.09
2022-08-21T04:14:00.721Z,98670.59
2022-08-21T04:19:22.478Z,98674.44
2022-08-21T04:24:44.222Z,98681.78
2022-08-21T04:30:06.441Z,98685.75
2022-08-21T04:35:29.063Z,98683.66
2022-08-21T04:40:52.075Z,98695.88
2022-08-21T04:46:13.890Z,98710.09
2022-08-21T04:51:38.909Z,98707.47
2022-08-21T04:57:06.249Z,98706.28
2022-08-21T05:02:28.085Z,98702.91
2022-08-21T05:07:50.483Z,98705.97
2022-08-21T05:13:13.848Z,98712.13
2022-08-21T05:18:35.762Z,98722.09
2022-08-21T05:23:57.553Z,98727.84
2022-08-21T05:29:20.008Z,98724.00
2022-08-21T05:34:42.317Z,98728.91
2022-08-21T05:40:22.476Z,98735.00
2022-08-21T05:45:44.899Z,98736.91
2022-08-21T05:51:12.901Z,98734.47
2022-08-21T05:56:34.828Z,98728.72
2022-08-21T06:01:56.639Z,98739.56
2022-08-21T06:07:18.450Z,98731.13
2022-08-21T06:12:40.364Z,98732.31
2022-08-21T06:18:04.301Z,98729.59
2022-08-21T06:23:30.776Z,98733.22
2022-08-21T06:28:55.219Z,98736.16
2022-08-21T06:34:16.993Z,98733.25
2022-08-21T06:39:43.266Z,98727.69
2022-08-21T06:45:07.109Z,98729.50
2022-08-21T06:50:29.725Z,98722.91
2022-08-21T06:55:53.696Z,98713.97
2022-08-21T07:01:15.458Z,98718.47
2022-08-21T07:06:37.298Z,98715.63
2022-08-21T07:12:00.054Z,98713.44
2022-08-21T07:17:21.875Z,98703.19
2022-08-21T07:22:43.600Z,98706.28
2022-08-21T07:28:05.495Z,98705.50
2022-08-21T07:33:29.731Z,98704.16
2022-08-21T07:38:52.726Z,98695.69
2022-08-21T07:44:14.666Z,98687.91
2022-08-21T07:49:36.619Z,98696.03
2022-08-21T07:55:00.749Z,98690.03
2022-08-21T08:00:26.887Z,98690.06
2022-08-21T08:05:48.960Z,98686.38
2022-08-21T08:11:12.131Z,98684.84
2022-08-21T08:16:33.859Z,98673.50
2022-08-21T08:21:55.739Z,98675.41
2022-08-21T08:27:18.058Z,98666.25
2022-08-21T08:32:40.921Z,98662.41
2022-08-21T08:38:03.035Z,98656.81
2022-08-21T08:43:24.769Z,98641.66
2022-08-21T08:49:03.429Z,98645.53
2022-08-21T08:54:34.222Z,98639.69
2022-08-21T08:59:58.883Z,98632.34
2022-08-21T09:05:28.175Z,98635.38
2022-08-21T09:11:02.102Z,98627.19
2022-08-21T09:16:34.702Z,98625.94
2022-08-21T09:22:18.109Z,98614.00
2022-08-21T09:27:40.648Z,98616.09
2022-08-21T09:33:02.395Z,98614.31
2022-08-21T09:38:28.986Z,98617.03
2022-08-21T09:43:54.881Z,98604.28
2022-08-21T09:49:28.690Z,98605.63
2022-08-21T09:54:54.155Z,98594.28
2022-08-21T10:00:34.256Z,98591.34
2022-08-21T10:06:09.571Z,98587.22
2022-08-21T10:11:32.336Z,98585.22
2022-08-21T10:17:16.904Z,98578.41
2022-08-21T10:22:57.053Z,98568.13
2022-08-21T10:28:54.276Z,98571.13
2022-08-21T10:34:30.245Z,98564.00
2022-08-21T10:40:08.213Z,98566.03
2022-08-21T10:46:11.331Z,98550.38
2022-08-21T10:52:04.575Z,98550.34
2022-08-21T10:57:35.173Z,98545.38
2022-08-21T11:03:09.467Z,98541.69
2022-08-21T11:08:38.778Z,98537.03
2022-08-21T11:14:13.977Z,98518.34
2022-08-21T11:20:06.851Z,98519.63
2022-08-21T11:25:36.555Z,98516.94
2022-08-21T11:31:14.038Z,98516.56
2022-08-21T11:36:47.432Z,98505.34
2022-08-21T11:42:27.163Z,98507.31
2022-08-21T11:48:16.854Z,98507.66
2022-08-21T11:53:54.021Z,98501.31
2022-08-21T11:59:24.105Z,98492.91
2022-08-21T12:04:56.391Z,98504.00
2022-08-21T12:10:23.249Z,98488.59
2022-08-21T12:15:44.950Z,98488.97
2022-08-21T12:21:19.800Z,98478.03
2022-08-21T12:26:59.998Z,98479.09
2022-08-21T12:32:29.146Z,98467.75
2022-08-21T12:38:29.102Z,98464.34
2022-08-21T12:44:00.217Z,98458.16
2022-08-21T12:49:36.385Z,98445.56
2022-08-21T12:54:58.131Z,98449.16
2022-08-21T13:00:24.246Z,98451.94
2022-08-21T13:05:46.374Z,98447.16
2022-08-21T13:11:13.338Z,98457.50
2022-08-21T13:16:37.133Z,98451.00
2022-08-21T13:21:59.055Z,98448.84
2022-08-21T13:27:29.470Z,98447.00
2022-08-21T13:32:56.467Z,98450.59
2022-08-21T13:38:26.611Z,98441.94
2022-08-21T13:44:01.111Z,98426.38
2022-08-21T13:49:30.085Z,98429.28
2022-08-21T13:55:00.685Z,98421.19
2022-08-21T14:00:31.232Z,98416.53
2022-08-21T14:05:52.951Z,98421.06
2022-08-21T14:11:14.899Z,98429.19
2022-08-21T14:16:53.977Z,98416.47
2022-08-21T14:22:40.281Z,98416.38
2022-08-21T14:28:13.844Z,98408.09
2022-08-21T14:33:38.376Z,98410.50
2022-08-21T14:39:00.608Z,98408.47
2022-08-21T14:44:24.304Z,98402.47
2022-08-21T14:49:46.043Z,98399.50
2022-08-21T14:55:11.597Z,98385.28
2022-08-21T15:00:36.021Z,98390.81
2022-08-21T15:05:58.972Z,98382.31
2022-08-21T15:11:42.288Z,98371.09
2022-08-21T15:17:06.386Z,98377.75
2022-08-21T15:22:28.551Z,98368.59
2022-08-21T15:27:50.743Z,98369.50
2022-08-21T15:33:12.519Z,98364.06
2022-08-21T15:38:34.350Z,98360.56
2022-08-21T15:43:56.114Z,98359.22
2022-08-21T15:49:17.844Z,98361.25
2022-08-21T15:54:39.612Z,98355.78
2022-08-21T16:00:12.948Z,98347.13
2022-08-21T16:05:34.684Z,98352.97
2022-08-21T16:10:56.481Z,98355.00
2022-08-21T16:16:24.957Z,98349.25
2022-08-21T16:21:46.669Z,98349.00
2022-08-21T16:27:09.173Z,98336.28
2022-08-21T16:32:31.451Z,98330.53
2022-08-21T16:37:53.628Z,98335.97
2022-08-21T16:43:16.287Z,98330.81
2022-08-21T16:48:39.047Z,98330.72
2022-08-21T16:54:01.282Z,98318.72
2022-08-21T16:59:23.131Z,98319.38
2022-08-21T17:04:45.110Z,98316.53
2022-08-21T17:10:09.001Z,98319.19
2022-08-21T17:15:36.210Z,98319.75
2022-08-21T17:20:57.978Z,98321.13
2022-08-21T17:26:19.923Z,98327.13
2022-08-21T17:31:42.833Z,98320.03
2022-08-21T17:37:05.614Z,98322.44
2022-08-21T17:42:27.514Z,98320.66
2022-08-21T17:47:49.512Z,98324.63
2022-08-21T17:53:11.318Z,98327.56
2022-08-21T17:58:34.341Z,98334.84
2022-08-21T18:03:56.797Z,98337.63
2022-08-21T18:09:18.533Z,98335.22
2022-08-21T18:14:41.211Z,98340.63
2022-08-21T18:20:06.726Z,98343.06
2022-08-21T18:25:28.879Z,98348.63
2022-08-21T18:30:54.163Z,98354.22
2022-08-21T18:36:15.926Z,98350.78
2022-08-21T18:41:38.060Z,98360.72
2022-08-21T18:47:14.350Z,98360.09
2022-08-21T18:52:36.315Z,98363.16
2022-08-21T18:57:58.786Z,98366.19
2022-08-21T19:09:07.318Z,98377.63
2022-08-21T19:14:29.248Z,98387.97
2022-08-21T19:19:51.994Z,98389.22
2022-08-21T19:25:13.795Z,98389.06
2022-08-21T19:30:41.310Z,98393.09
2022-08-21T19:36:05.229Z,98402.63
2022-08-21T19:41:30.747Z,98400.47
2022-08-21T19:46:54.740Z,98405.47
2022-08-21T19:52:18.768Z,98407.81
2022-08-21T19:57:41.443Z,98408.13
2022-08-21T20:03:04.438Z,98412.16
2022-08-21T20:08:28.848Z,98413.34
2022-08-21T20:13:53.076Z,98413.50
2022-08-21T20:19:15.753Z,98412.50
2022-08-21T20:24:42.063Z,98417.63
2022-08-21T20:30:06.954Z,98419.47
2022-08-21T20:35:28.962Z,98419.78
2022-08-21T20:40:52.674Z,98419.22
2022-08-21T20:46:19.055Z,98423.00
2022-08-21T20:51:45.896Z,98429.47
2022-08-21T20:57:21.897Z,98430.28
2022-08-21T21:03:13.043Z,98428.47
2022-08-21T21:08:46.740Z,98418.97
2022-08-21T21:14:16.867Z,98428.16
2022-08-21T21:19:48.412Z,98424.69
2022-08-21T21:25:39.868Z,98423.81
2022-08-21T21:31:03.884Z,98425.47
2022-08-21T21:36:43.827Z,98420.63
2022-08-21T21:42:16.915Z,98424.38
2022-08-21T21:47:45.416Z,98421.78
2022-08-21T21:53:36.486Z,98431.56
2022-08-21T21:59:30.706Z,98429.94
2022-08-21T22:04:56.298Z,98434.78
2022-08-21T22:10:33.278Z,98438.25
2022-08-21T22:16:06.397Z,98428.84
2022-08-21T22:21:34.423Z,98434.84
2022-08-21T22:27:01.932Z,98431.88
2022-08-21T22:32:27.682Z,98442.41
2022-08-21T22:37:54.911Z,98436.97
2022-08-21T22:43:22.890Z,98440.97
2022-08-21T22:48:54.249Z,98448.53
2022-08-21T22:54:29.775Z,98443.81
2022-08-21T23:00:03.675Z,98451.41
2022-08-21T23:05:28.342Z,98445.91
2022-08-21T23:11:20.975Z,98444.53
2022-08-21T23:17:15.962Z,98442.09
2022-08-21T23:23:04.100Z,98437.78
2022-08-21T23:28:28.531Z,98434.06
2022-08-21T23:34:05.865Z,98436.91
2022-08-21T23:39:51.798Z,98434.59
2022-08-21T23:45:36.758Z,98433.28
2022-08-21T23:51:05.999Z,98437.53
2022-08-21T23:56:54.952Z,98437.97
